Terminal Aerodrome Forecast
Issued by NWS Buffalo, NY

Home | Current Version | Previous Version | Text Only | Print | Product List | Glossary On
Versions: 1 2 3 4 5 6 7 8 9 10 11 12 13 14 15 16 17 18 19 20 21 22 23 24 25 26 27 28 29
209
FTUS41 KBUF 260532
TAFART
TAF
KART 260532Z 2606/2706 07006KT P6SM FEW250
     FM261200 07008KT P6SM BKN100
     FM261500 08007KT P6SM VCSH OVC070
     FM262000 10007KT P6SM OVC025
     FM270400 15010KT P6SM VCSH OVC025=

USA.gov is the U.S. government's official web portal to all federal, state and local government web resources and services.